Caputa, South Dakota
Current Conditions -  °F | °C
As of 4:52 AM on Thursday 23 Oct 2014 (Local Time) from KRAP Reporting Station
Clear Clear  
Wind Chill: 34°   Ceiling: Unl
Heat Index: 34°   Visibility: 10mi
Dew Point: 27°   Wind: 0mph
Humidity: 75%   Direction: NA
Pressure: 29.98"   Gusts: NA
Location:  44°N, 102.98°W
Report Text: KRAP 231052Z AUTO 00000KT 10SM CLR 01/M03 A2998 RMK AO2 SLP157 T00111028
Loading
Personal Weather Stations






























Interactive Weather Map
Tropical Storm Tracking
New forecast layout! Learn more

10-Day Weather Forecast

Advertisements
Track Severe Weather on mobile